createdAt,value
2023-03-26T00:01:14.052Z,15.00
2023-03-26T00:03:41.985Z,14.55
2023-03-26T00:06:16.587Z,13.02
2023-03-26T00:08:45.210Z,7.15
2023-03-26T00:11:15.972Z,16.67
2023-03-26T00:13:43.933Z,10.48
2023-03-26T00:16:13.747Z,15.48
2023-03-26T00:18:43.931Z,10.15
2023-03-26T00:21:16.155Z,10.73
2023-03-26T00:23:43.481Z,16.13
2023-03-26T00:26:11.087Z,13.85
2023-03-26T00:28:40.578Z,7.97
2023-03-26T00:31:09.938Z,12.45
2023-03-26T00:33:38.540Z,16.10
2023-03-26T00:36:10.060Z,18.92
2023-03-26T00:38:38.959Z,12.80
2023-03-26T00:41:17.470Z,15.13
2023-03-26T00:43:48.855Z,18.20
2023-03-26T00:46:17.496Z,15.88
2023-03-26T00:48:46.040Z,12.23
2023-03-26T00:51:15.557Z,11.80
2023-03-26T00:53:43.554Z,11.73
2023-03-26T00:56:10.402Z,10.35
2023-03-26T00:58:37.607Z,13.05
2023-03-26T01:01:17.308Z,12.52
2023-03-26T01:03:57.065Z,13.57
2023-03-26T01:06:35.876Z,13.98
2023-03-26T01:09:12.730Z,11.85
2023-03-26T01:11:39.337Z,17.92
2023-03-26T01:14:10.530Z,10.30
2023-03-26T01:16:47.323Z,19.27
2023-03-26T01:19:34.053Z,12.85
2023-03-26T01:22:00.768Z,12.57
2023-03-26T01:24:27.279Z,13.38
2023-03-26T01:26:57.301Z,12.38
2023-03-26T01:29:34.175Z,14.38
2023-03-26T01:32:06.355Z,16.00
2023-03-26T01:34:47.044Z,13.57
2023-03-26T01:37:24.862Z,10.40
2023-03-26T01:40:04.986Z,12.70
2023-03-26T01:42:43.032Z,10.32
2023-03-26T01:45:21.164Z,12.05
2023-03-26T01:47:48.247Z,11.90
2023-03-26T01:50:15.331Z,14.15
2023-03-26T01:52:41.791Z,14.13
2023-03-26T01:55:14.153Z,16.25
2023-03-26T01:58:09.305Z,13.43
2023-03-26T02:00:46.018Z,13.38
2023-03-26T02:03:27.965Z,9.73
2023-03-26T02:06:00.654Z,15.88
2023-03-26T02:08:37.364Z,16.20
2023-03-26T02:11:16.023Z,10.43
2023-03-26T02:13:46.182Z,12.98
2023-03-26T02:16:16.388Z,7.18
2023-03-26T02:18:45.203Z,10.52
2023-03-26T02:21:21.603Z,9.23
2023-03-26T02:23:50.903Z,13.38
2023-03-26T02:28:45.643Z,12.63
2023-03-26T02:31:13.776Z,11.45
2023-03-26T02:33:40.357Z,10.43
2023-03-26T02:36:08.492Z,11.15
2023-03-26T02:38:35.278Z,8.65
2023-03-26T02:41:03.043Z,9.13
2023-03-26T02:43:29.698Z,9.70
2023-03-26T02:45:56.990Z,15.25
2023-03-26T02:48:23.864Z,14.82
2023-03-26T02:50:54.138Z,13.73
2023-03-26T02:53:29.801Z,8.68
2023-03-26T02:55:57.629Z,15.10
2023-03-26T02:58:25.330Z,10.63
2023-03-26T03:00:55.080Z,14.00
2023-03-26T03:03:26.134Z,14.07
2023-03-26T03:05:54.704Z,9.52
2023-03-26T03:08:23.396Z,12.35
2023-03-26T03:11:01.791Z,13.77
2023-03-26T03:13:28.685Z,9.40
2023-03-26T03:15:56.088Z,10.65
2023-03-26T03:18:22.946Z,8.77
2023-03-26T03:20:49.939Z,10.88
2023-03-26T03:23:17.193Z,7.53
2023-03-26T03:25:43.827Z,11.18
2023-03-26T03:28:11.155Z,14.10
2023-03-26T03:30:38.000Z,12.48
2023-03-26T03:33:06.144Z,12.10
2023-03-26T03:35:33.705Z,7.65
2023-03-26T03:38:00.951Z,10.35
2023-03-26T03:40:27.447Z,13.60
2023-03-26T03:42:53.932Z,15.07
2023-03-26T03:45:20.475Z,17.52
2023-03-26T03:47:47.018Z,9.65
2023-03-26T03:50:13.617Z,10.27
2023-03-26T03:52:40.219Z,13.32
2023-03-26T03:55:06.989Z,15.52
2023-03-26T03:57:34.632Z,8.77
2023-03-26T04:00:01.500Z,5.57
2023-03-26T04:02:34.811Z,7.93
2023-03-26T04:05:04.218Z,8.07
2023-03-26T04:07:32.208Z,17.73
2023-03-26T04:10:00.254Z,15.30
2023-03-26T04:12:28.461Z,13.07
2023-03-26T04:14:56.145Z,10.48
2023-03-26T04:17:24.334Z,10.43
2023-03-26T04:19:54.950Z,6.43
2023-03-26T04:22:22.173Z,13.73
2023-03-26T04:25:30.440Z,8.68
2023-03-26T04:27:58.423Z,9.02
2023-03-26T04:30:25.079Z,15.07
2023-03-26T04:32:51.737Z,11.07
2023-03-26T04:35:19.496Z,11.00
2023-03-26T04:37:46.426Z,8.82
2023-03-26T04:40:30.559Z,18.02
2023-03-26T04:43:02.284Z,8.52
2023-03-26T04:45:30.391Z,15.35
2023-03-26T04:48:00.741Z,8.80
2023-03-26T04:50:28.509Z,13.50
2023-03-26T04:52:57.311Z,15.75
2023-03-26T04:55:48.929Z,19.83
2023-03-26T04:58:16.034Z,11.93
2023-03-26T05:00:43.281Z,9.63
2023-03-26T05:03:13.356Z,10.00
2023-03-26T05:05:40.635Z,10.95
2023-03-26T05:08:07.383Z,15.27
2023-03-26T05:10:33.982Z,9.93
2023-03-26T05:13:00.478Z,11.02
2023-03-26T05:15:27.097Z,10.10
2023-03-26T05:17:55.495Z,9.02
2023-03-26T05:20:27.840Z,8.48
2023-03-26T05:22:54.420Z,10.35
2023-03-26T05:25:20.966Z,13.88
2023-03-26T05:27:48.128Z,10.07
2023-03-26T05:30:17.028Z,10.20
2023-03-26T05:32:44.442Z,11.68
2023-03-26T05:35:12.601Z,10.55
2023-03-26T05:37:39.136Z,11.45
2023-03-26T05:40:12.298Z,10.38
2023-03-26T05:42:39.896Z,6.43
2023-03-26T05:45:08.106Z,11.80
2023-03-26T05:47:35.004Z,9.38
2023-03-26T05:50:01.670Z,7.10
2023-03-26T05:52:29.047Z,11.30
2023-03-26T05:55:10.377Z,11.27
2023-03-26T05:57:37.597Z,12.43
2023-03-26T06:00:07.703Z,11.00
2023-03-26T06:02:34.929Z,9.73
2023-03-26T06:05:02.847Z,9.35
2023-03-26T06:07:29.372Z,9.57
2023-03-26T06:09:56.347Z,9.98
2023-03-26T06:12:22.873Z,9.32
2023-03-26T06:14:49.424Z,9.60
2023-03-26T06:17:16.007Z,9.30
2023-03-26T06:19:42.506Z,9.82
2023-03-26T06:22:09.014Z,7.03
2023-03-26T06:24:35.575Z,8.73
2023-03-26T06:27:02.092Z,8.15
2023-03-26T06:29:28.782Z,10.23
2023-03-26T06:31:55.416Z,8.80
2023-03-26T06:34:21.964Z,13.15
2023-03-26T06:36:48.940Z,5.65
2023-03-26T06:39:16.534Z,10.25
2023-03-26T06:41:43.180Z,8.82
2023-03-26T06:44:11.198Z,7.93
2023-03-26T06:46:39.103Z,7.03
2023-03-26T06:49:05.632Z,10.52
2023-03-26T06:51:32.160Z,14.57
2023-03-26T06:53:58.659Z,12.25
2023-03-26T06:56:25.293Z,8.95
2023-03-26T06:58:51.848Z,11.27
2023-03-26T07:01:18.423Z,11.45
2023-03-26T07:03:45.131Z,13.13
2023-03-26T07:06:11.995Z,16.02
2023-03-26T07:08:38.891Z,16.92
2023-03-26T07:11:06.007Z,14.77
2023-03-26T07:13:32.588Z,10.73
2023-03-26T07:15:59.106Z,12.23
2023-03-26T07:18:25.841Z,10.13
2023-03-26T07:20:52.687Z,9.57
2023-03-26T07:23:36.741Z,15.95
2023-03-26T07:26:25.964Z,11.10
2023-03-26T07:29:17.361Z,8.60
2023-03-26T07:31:43.908Z,12.75
2023-03-26T07:34:16.407Z,13.95
2023-03-26T07:37:01.194Z,11.35
2023-03-26T07:39:52.208Z,12.73
2023-03-26T07:43:15.052Z,9.48
2023-03-26T07:45:44.970Z,10.25
2023-03-26T07:48:27.154Z,9.20
2023-03-26T07:50:55.038Z,9.80
2023-03-26T07:53:22.537Z,8.88
2023-03-26T07:56:21.260Z,8.13
2023-03-26T07:58:53.592Z,6.10
2023-03-26T08:01:43.502Z,7.90
2023-03-26T08:04:48.118Z,11.70
2023-03-26T08:07:55.309Z,9.15
2023-03-26T08:10:22.155Z,12.15
2023-03-26T08:13:16.487Z,11.35
2023-03-26T08:16:08.847Z,10.98
2023-03-26T08:18:41.372Z,11.05
2023-03-26T08:21:20.652Z,9.73
2023-03-26T08:24:37.637Z,11.10
2023-03-26T08:27:21.716Z,9.23
2023-03-26T08:33:35.993Z,8.15
2023-03-26T08:36:04.110Z,8.95
2023-03-26T08:38:30.912Z,11.60
2023-03-26T08:41:12.687Z,12.65
2023-03-26T08:44:09.623Z,8.85
2023-03-26T08:47:01.010Z,11.40
2023-03-26T08:49:41.639Z,7.35
2023-03-26T08:52:27.141Z,7.07
2023-03-26T08:55:14.391Z,8.40
2023-03-26T08:57:46.524Z,6.88
2023-03-26T09:00:31.438Z,5.63
2023-03-26T09:03:18.798Z,10.95
2023-03-26T09:05:54.795Z,7.47
2023-03-26T09:09:06.461Z,7.60
2023-03-26T09:12:06.301Z,7.40
2023-03-26T09:14:44.856Z,9.05
2023-03-26T09:17:20.469Z,7.90
2023-03-26T09:19:49.937Z,9.48
2023-03-26T09:22:38.694Z,8.13
2023-03-26T09:25:48.483Z,8.50
2023-03-26T09:28:22.757Z,7.30
2023-03-26T09:31:10.972Z,6.07
2023-03-26T09:34:01.527Z,6.32
2023-03-26T09:36:43.203Z,5.85
2023-03-26T09:39:24.005Z,6.50
2023-03-26T09:42:05.033Z,7.25
2023-03-26T09:44:37.370Z,6.90
2023-03-26T09:47:41.552Z,9.35
2023-03-26T09:50:41.548Z,5.82
2023-03-26T09:55:52.907Z,3.85
2023-03-26T09:58:41.346Z,4.57
2023-03-26T10:01:16.771Z,7.43
2023-03-26T10:03:56.416Z,3.20
2023-03-26T10:06:30.119Z,5.30
2023-03-26T10:09:17.654Z,3.13
2023-03-26T10:12:20.656Z,5.05
2023-03-26T10:14:49.855Z,6.45
2023-03-26T10:20:05.855Z,6.10
2023-03-26T10:22:59.937Z,6.03
2023-03-26T10:25:49.582Z,4.38
2023-03-26T10:28:40.374Z,3.53
2023-03-26T10:31:09.915Z,4.32
2023-03-26T10:34:28.427Z,4.72
2023-03-26T10:37:09.545Z,6.03
2023-03-26T10:39:38.322Z,3.90
2023-03-26T10:42:19.844Z,4.30
2023-03-26T10:45:11.652Z,2.67
2023-03-26T10:48:12.133Z,2.13
2023-03-26T10:50:59.739Z,3.97
2023-03-26T10:56:13.931Z,2.25
2023-03-26T10:58:48.822Z,5.20
2023-03-26T11:01:33.325Z,2.10
2023-03-26T11:04:22.988Z,0.88
2023-03-26T11:07:28.580Z,2.22
2023-03-26T11:10:18.734Z,4.05
2023-03-26T11:12:55.113Z,2.72
2023-03-26T11:15:24.790Z,0.93
2023-03-26T11:18:04.036Z,2.20
2023-03-26T11:20:53.726Z,2.17
2023-03-26T11:23:36.062Z,1.52
2023-03-26T11:26:14.850Z,2.92
2023-03-26T11:29:04.020Z,1.67
2023-03-26T11:31:53.874Z,1.20
2023-03-26T11:34:27.653Z,2.38
2023-03-26T11:36:57.548Z,2.60
2023-03-26T11:39:29.434Z,1.98
2023-03-26T11:42:07.630Z,1.65
2023-03-26T11:44:44.188Z,2.85
2023-03-26T11:47:15.549Z,2.38
2023-03-26T11:49:44.419Z,2.90
2023-03-26T11:52:12.247Z,1.27
2023-03-26T11:54:39.474Z,1.70
2023-03-26T11:57:10.145Z,4.00
2023-03-26T11:59:57.193Z,1.80
2023-03-26T12:02:26.091Z,1.08
2023-03-26T12:05:02.842Z,2.30
2023-03-26T12:07:34.871Z,0.85
2023-03-26T12:10:17.873Z,2.00
2023-03-26T12:12:47.698Z,2.97
2023-03-26T12:15:16.336Z,2.22
2023-03-26T12:17:43.394Z,3.25
2023-03-26T12:20:25.501Z,2.17
2023-03-26T12:22:53.136Z,2.10
2023-03-26T12:25:22.340Z,0.98
2023-03-26T12:27:52.969Z,2.47
2023-03-26T12:30:22.823Z,1.38
2023-03-26T12:32:53.343Z,3.20
2023-03-26T12:35:27.266Z,1.40
2023-03-26T12:37:55.782Z,1.58
2023-03-26T12:40:25.377Z,2.72
2023-03-26T12:44:49.558Z,1.50
2023-03-26T12:45:44.543Z,0.45
2023-03-26T12:48:15.703Z,1.90
2023-03-26T12:51:04.161Z,0.75
2023-03-26T12:53:33.573Z,0.80
2023-03-26T12:56:06.325Z,0.38
2023-03-26T12:59:05.419Z,1.98
2023-03-26T13:01:44.961Z,1.27
2023-03-26T13:04:39.405Z,1.13
2023-03-26T13:07:15.366Z,0.65
2023-03-26T13:10:26.400Z,1.45
2023-03-26T13:13:10.907Z,1.92
2023-03-26T13:15:44.508Z,2.35
2023-03-26T13:18:35.726Z,1.23
2023-03-26T13:21:31.221Z,1.25
2023-03-26T13:24:11.322Z,1.02
2023-03-26T13:26:54.723Z,0.90
2023-03-26T13:29:42.865Z,1.50
2023-03-26T13:32:12.422Z,0.85
2023-03-26T13:35:07.875Z,1.52
2023-03-26T13:37:34.973Z,2.17
2023-03-26T13:40:10.419Z,1.25
2023-03-26T13:43:12.858Z,1.65
2023-03-26T13:45:57.672Z,2.17
2023-03-26T13:48:38.090Z,0.70
2023-03-26T13:51:36.859Z,0.90
2023-03-26T13:54:49.233Z,1.92
2023-03-26T13:57:29.987Z,1.52
2023-03-26T14:00:13.807Z,1.73
2023-03-26T14:02:42.659Z,2.72
2023-03-26T14:05:23.226Z,0.50
2023-03-26T14:08:14.769Z,0.60
2023-03-26T14:10:45.972Z,0.73
2023-03-26T14:13:36.595Z,0.35
2023-03-26T14:16:06.784Z,0.52
2023-03-26T14:18:49.228Z,0.68
2023-03-26T14:21:37.482Z,1.63
2023-03-26T14:24:43.924Z,2.00
2023-03-26T14:27:24.268Z,2.67
2023-03-26T14:30:04.380Z,2.60
2023-03-26T14:32:36.979Z,2.45
2023-03-26T14:35:12.371Z,3.95
2023-03-26T14:38:11.693Z,3.15
2023-03-26T14:41:19.004Z,2.83
2023-03-26T14:44:21.337Z,3.72
2023-03-26T14:47:06.214Z,1.90
2023-03-26T14:49:38.600Z,2.63
2023-03-26T14:52:45.682Z,3.92
2023-03-26T14:55:37.621Z,2.55
2023-03-26T14:58:22.188Z,3.15
2023-03-26T15:01:06.938Z,3.80
2023-03-26T15:03:49.152Z,3.35
2023-03-26T15:06:34.868Z,4.80
2023-03-26T15:09:32.671Z,4.95
2023-03-26T15:12:36.571Z,2.70
2023-03-26T15:15:27.599Z,4.03
2023-03-26T15:18:28.022Z,3.00
2023-03-26T15:21:22.022Z,4.38
2023-03-26T15:23:48.549Z,2.95
2023-03-26T15:26:46.477Z,3.53
2023-03-26T15:29:37.750Z,4.53
2023-03-26T15:32:49.468Z,2.78
2023-03-26T15:35:34.127Z,3.72
2023-03-26T15:38:38.552Z,4.88
2023-03-26T15:41:19.372Z,3.70
2023-03-26T15:44:22.830Z,2.47
2023-03-26T15:46:56.598Z,3.30
2023-03-26T15:49:46.386Z,2.95
2023-03-26T15:52:21.250Z,3.40
2023-03-26T15:55:19.108Z,4.45
2023-03-26T15:58:07.825Z,3.58
2023-03-26T16:00:41.900Z,3.33
2023-03-26T16:03:25.596Z,4.68
2023-03-26T16:06:06.067Z,4.35
2023-03-26T16:09:07.917Z,4.25
2023-03-26T16:11:43.468Z,4.70
2023-03-26T16:14:23.568Z,5.53
2023-03-26T16:16:57.468Z,4.30
2023-03-26T16:19:48.093Z,5.65
2023-03-26T16:22:43.951Z,9.13
2023-03-26T16:25:32.813Z,7.40
2023-03-26T16:28:32.455Z,7.22
2023-03-26T16:31:38.225Z,8.77
2023-03-26T16:34:08.516Z,13.57
2023-03-26T16:39:10.775Z,12.15
2023-03-26T16:41:40.367Z,12.30
2023-03-26T16:44:10.710Z,9.95
2023-03-26T16:46:48.753Z,11.15
2023-03-26T16:49:36.887Z,15.27
2023-03-26T16:52:23.292Z,12.73
2023-03-26T16:55:21.724Z,10.93
2023-03-26T16:58:29.620Z,8.18
2023-03-26T17:01:27.095Z,13.75
2023-03-26T17:04:00.764Z,14.27
2023-03-26T17:06:53.823Z,15.80
2023-03-26T17:09:28.981Z,12.93
2023-03-26T17:12:33.685Z,11.32
2023-03-26T17:15:06.001Z,8.68
2023-03-26T17:17:57.616Z,12.95
2023-03-26T17:20:36.853Z,11.45
2023-03-26T17:23:17.720Z,11.55
2023-03-26T17:26:06.124Z,9.57
2023-03-26T17:28:42.740Z,9.55
2023-03-26T17:31:40.164Z,9.82
2023-03-26T17:34:33.194Z,10.13
2023-03-26T17:37:03.210Z,11.45
2023-03-26T17:39:46.751Z,9.25
2023-03-26T17:42:16.008Z,10.15
2023-03-26T17:44:45.597Z,7.82
2023-03-26T17:47:35.996Z,11.73
2023-03-26T17:50:22.664Z,10.35
2023-03-26T17:53:13.624Z,11.68
2023-03-26T17:55:43.757Z,13.13
2023-03-26T17:58:27.100Z,7.72
2023-03-26T18:01:04.143Z,8.57
2023-03-26T18:03:52.634Z,11.48
2023-03-26T18:06:43.617Z,9.73
2023-03-26T18:09:32.900Z,10.88
2023-03-26T18:12:21.376Z,9.05
2023-03-26T18:14:57.204Z,8.70
2023-03-26T18:17:24.914Z,12.98
2023-03-26T18:20:06.390Z,12.02
2023-03-26T18:22:33.616Z,9.95
2023-03-26T18:25:02.158Z,7.43
2023-03-26T18:27:41.024Z,8.30
2023-03-26T18:30:19.703Z,13.45
2023-03-26T18:33:03.392Z,11.65
2023-03-26T18:35:41.818Z,12.57
2023-03-26T18:38:16.793Z,7.68
2023-03-26T18:40:45.692Z,5.03
2023-03-26T18:43:28.799Z,7.68
2023-03-26T18:45:59.547Z,13.23
2023-03-26T18:48:28.759Z,14.80
2023-03-26T18:53:38.514Z,8.75
2023-03-26T18:56:19.571Z,10.80
2023-03-26T18:58:51.525Z,11.43
2023-03-26T19:01:25.401Z,6.93
2023-03-26T19:03:53.753Z,8.57
2023-03-26T19:06:21.082Z,11.80
2023-03-26T19:08:48.567Z,10.38
2023-03-26T19:11:17.673Z,8.13
2023-03-26T19:13:58.335Z,9.43
2023-03-26T19:16:28.952Z,22.10
2023-03-26T19:18:59.153Z,9.48
2023-03-26T19:21:26.281Z,7.43
2023-03-26T19:23:54.311Z,11.18
2023-03-26T19:26:22.240Z,7.45
2023-03-26T19:28:53.303Z,8.43
2023-03-26T19:31:33.636Z,8.40
2023-03-26T19:34:17.984Z,11.65
2023-03-26T19:37:00.988Z,8.38
2023-03-26T19:39:42.842Z,10.02
2023-03-26T19:42:44.751Z,13.70
2023-03-26T19:45:18.574Z,8.70
2023-03-26T19:47:50.367Z,8.63
2023-03-26T19:50:19.054Z,10.13
2023-03-26T19:52:45.597Z,13.43
2023-03-26T19:55:12.177Z,12.00
2023-03-26T19:57:38.797Z,12.40
2023-03-26T20:00:13.720Z,10.98
2023-03-26T20:02:42.412Z,11.30
2023-03-26T20:05:23.743Z,11.18
2023-03-26T20:07:50.721Z,7.20
2023-03-26T20:10:17.532Z,12.10
2023-03-26T20:12:44.133Z,7.85
2023-03-26T20:15:25.956Z,9.80
2023-03-26T20:17:54.501Z,6.78
2023-03-26T20:20:25.550Z,6.07
2023-03-26T20:22:55.928Z,6.40
2023-03-26T20:25:34.995Z,5.50
2023-03-26T20:28:01.587Z,10.20
2023-03-26T20:30:37.547Z,9.90
2023-03-26T20:33:11.831Z,6.88
2023-03-26T20:35:51.069Z,9.20
2023-03-26T20:38:19.866Z,7.75
2023-03-26T20:40:49.303Z,14.07
2023-03-26T20:43:18.418Z,8.15
2023-03-26T20:45:46.138Z,6.75
2023-03-26T20:48:12.674Z,8.18
2023-03-26T20:50:50.518Z,6.47
2023-03-26T20:53:18.985Z,12.70
2023-03-26T20:55:46.570Z,8.90
2023-03-26T20:58:14.825Z,9.60
2023-03-26T21:00:44.948Z,5.47
2023-03-26T21:03:13.749Z,8.70
2023-03-26T21:05:41.167Z,11.98
2023-03-26T21:08:13.308Z,10.27
2023-03-26T21:10:40.205Z,9.85
2023-03-26T21:13:35.458Z,13.27
2023-03-26T21:16:02.422Z,9.18
2023-03-26T21:18:29.150Z,7.43
2023-03-26T21:21:37.127Z,7.75
2023-03-26T21:24:29.437Z,12.40
2023-03-26T21:27:12.577Z,10.10
2023-03-26T21:29:39.401Z,11.27
2023-03-26T21:32:06.294Z,7.47
2023-03-26T21:34:33.571Z,11.95
2023-03-26T21:37:01.686Z,11.50
2023-03-26T21:39:28.908Z,8.90
2023-03-26T21:42:04.663Z,10.52
2023-03-26T21:44:32.392Z,7.47
2023-03-26T21:47:10.539Z,7.40
2023-03-26T21:49:38.491Z,7.90
2023-03-26T21:52:05.749Z,16.00
2023-03-26T21:54:33.023Z,9.13
2023-03-26T21:57:13.028Z,10.57
2023-03-26T21:59:54.870Z,8.90
2023-03-26T22:02:59.617Z,5.30
2023-03-26T22:05:44.608Z,15.98
2023-03-26T22:08:27.286Z,13.93
2023-03-26T22:10:54.039Z,10.63
2023-03-26T22:13:20.640Z,5.35
2023-03-26T22:15:47.262Z,5.35
2023-03-26T22:18:14.293Z,8.07
2023-03-26T22:20:43.337Z,8.25
2023-03-26T22:23:09.849Z,7.47
2023-03-26T22:25:36.428Z,8.63
2023-03-26T22:28:04.383Z,15.40
2023-03-26T22:30:32.436Z,9.10
2023-03-26T22:32:59.146Z,5.75
2023-03-26T22:35:26.655Z,9.27
2023-03-26T22:38:00.751Z,7.32
2023-03-26T22:40:42.999Z,6.53
2023-03-26T22:43:09.459Z,11.57
2023-03-26T22:45:37.512Z,8.90
2023-03-26T22:49:00.870Z,8.05
2023-03-26T22:51:28.375Z,14.98
2023-03-26T22:53:54.922Z,9.73
2023-03-26T22:56:21.700Z,8.93
2023-03-26T22:58:48.308Z,13.73
2023-03-26T23:01:18.551Z,12.43
2023-03-26T23:03:45.550Z,9.63
2023-03-26T23:06:12.993Z,2.78
2023-03-26T23:08:40.419Z,8.80
2023-03-26T23:11:16.174Z,11.38
2023-03-26T23:13:43.816Z,8.30
2023-03-26T23:16:11.559Z,3.60
2023-03-26T23:18:39.164Z,9.55
2023-03-26T23:21:11.848Z,8.52
2023-03-26T23:23:39.731Z,8.18
2023-03-26T23:26:06.920Z,9.57
2023-03-26T23:28:35.301Z,7.30
2023-03-26T23:31:04.397Z,7.13
2023-03-26T23:33:35.298Z,6.50
2023-03-26T23:36:08.661Z,3.47
2023-03-26T23:38:43.422Z,8.00
2023-03-26T23:41:33.742Z,2.90
2023-03-26T23:44:00.255Z,5.65
2023-03-26T23:46:33.143Z,8.50
2023-03-26T23:49:02.587Z,9.05
2023-03-26T23:51:30.595Z,9.18
2023-03-26T23:53:57.741Z,7.32
2023-03-26T23:56:24.400Z,8.20
2023-03-26T23:58:51.036Z,7.82
